sensor_id;sensor_type;location;lat;lon;timestamp;temperature;humidity
8527;DHT22;4301;48.362;8.478;2022-07-23T00:01:19;18.90;99.90
8527;DHT22;4301;48.362;8.478;2022-07-23T00:03:48;18.90;99.90
8527;DHT22;4301;48.362;8.478;2022-07-23T00:06:15;18.60;99.90
8527;DHT22;4301;48.362;8.478;2022-07-23T00:08:42;18.60;99.90
8527;DHT22;4301;48.362;8.478;2022-07-23T00:11:09;18.60;99.90
8527;DHT22;4301;48.362;8.478;2022-07-23T00:13:37;18.50;99.90
8527;DHT22;4301;48.362;8.478;2022-07-23T00:16:04;18.50;99.90
8527;DHT22;4301;48.362;8.478;2022-07-23T00:18:31;18.60;99.90
8527;DHT22;4301;48.362;8.478;2022-07-23T00:21:00;18.60;99.90
8527;DHT22;4301;48.362;8.478;2022-07-23T00:23:27;18.50;99.90
8527;DHT22;4301;48.362;8.478;2022-07-23T00:25:55;18.50;99.90
8527;DHT22;4301;48.362;8.478;2022-07-23T00:28:22;18.50;99.90
8527;DHT22;4301;48.362;8.478;2022-07-23T00:30:49;18.50;99.90
8527;DHT22;4301;48.362;8.478;2022-07-23T00:33:16;18.60;99.90
8527;DHT22;4301;48.362;8.478;2022-07-23T00:35:43;18.60;99.90
8527;DHT22;4301;48.362;8.478;2022-07-23T00:38:11;18.70;99.90
8527;DHT22;4301;48.362;8.478;2022-07-23T00:40:39;18.60;99.90
8527;DHT22;4301;48.362;8.478;2022-07-23T00:43:06;18.60;99.90
8527;DHT22;4301;48.362;8.478;2022-07-23T00:45:33;18.70;99.90
8527;DHT22;4301;48.362;8.478;2022-07-23T00:48:01;18.70;99.90
8527;DHT22;4301;48.362;8.478;2022-07-23T00:50:29;18.80;99.90
8527;DHT22;4301;48.362;8.478;2022-07-23T00:52:57;18.80;99.90
8527;DHT22;4301;48.362;8.478;2022-07-23T00:55:25;18.70;99.90
8527;DHT22;4301;48.362;8.478;2022-07-23T00:57:53;18.50;99.90
8527;DHT22;4301;48.362;8.478;2022-07-23T01:00:21;18.50;99.90
8527;DHT22;4301;48.362;8.478;2022-07-23T01:02:48;18.50;99.90
8527;DHT22;4301;48.362;8.478;2022-07-23T01:05:16;18.50;99.90
8527;DHT22;4301;48.362;8.478;2022-07-23T01:07:48;18.40;99.90
8527;DHT22;4301;48.362;8.478;2022-07-23T01:10:15;18.40;99.90
8527;DHT22;4301;48.362;8.478;2022-07-23T01:13:00;18.40;99.90
8527;DHT22;4301;48.362;8.478;2022-07-23T01:15:27;18.40;99.90
8527;DHT22;4301;48.362;8.478;2022-07-23T01:17:55;18.40;99.90
8527;DHT22;4301;48.362;8.478;2022-07-23T01:20:22;18.40;99.90
8527;DHT22;4301;48.362;8.478;2022-07-23T01:22:51;18.40;99.90
8527;DHT22;4301;48.362;8.478;2022-07-23T01:25:19;18.30;99.90
8527;DHT22;4301;48.362;8.478;2022-07-23T01:27:46;18.40;99.90
8527;DHT22;4301;48.362;8.478;2022-07-23T01:30:13;18.20;99.90
8527;DHT22;4301;48.362;8.478;2022-07-23T01:32:40;17.90;99.90
8527;DHT22;4301;48.362;8.478;2022-07-23T01:35:08;17.80;99.90
8527;DHT22;4301;48.362;8.478;2022-07-23T01:37:36;17.70;99.90
8527;DHT22;4301;48.362;8.478;2022-07-23T01:40:05;17.70;99.90
8527;DHT22;4301;48.362;8.478;2022-07-23T01:42:33;17.80;99.90
8527;DHT22;4301;48.362;8.478;2022-07-23T01:45:00;17.80;99.90
8527;DHT22;4301;48.362;8.478;2022-07-23T01:47:28;17.70;99.90
8527;DHT22;4301;48.362;8.478;2022-07-23T01:49:55;17.70;99.90
8527;DHT22;4301;48.362;8.478;2022-07-23T01:52:22;17.70;99.90
8527;DHT22;4301;48.362;8.478;2022-07-23T01:54:49;17.70;99.90
8527;DHT22;4301;48.362;8.478;2022-07-23T01:57:17;17.80;99.90
8527;DHT22;4301;48.362;8.478;2022-07-23T01:59:44;17.80;99.90
8527;DHT22;4301;48.362;8.478;2022-07-23T02:02:11;17.80;99.90
8527;DHT22;4301;48.362;8.478;2022-07-23T02:04:38;17.80;99.90
8527;DHT22;4301;48.362;8.478;2022-07-23T02:07:06;17.70;99.90
8527;DHT22;4301;48.362;8.478;2022-07-23T02:09:33;17.80;99.90
8527;DHT22;4301;48.362;8.478;2022-07-23T02:12:00;17.80;99.90
8527;DHT22;4301;48.362;8.478;2022-07-23T02:14:29;17.70;99.90
8527;DHT22;4301;48.362;8.478;2022-07-23T02:16:56;17.80;99.90
8527;DHT22;4301;48.362;8.478;2022-07-23T02:19:23;17.70;99.90
8527;DHT22;4301;48.362;8.478;2022-07-23T02:21:50;17.80;99.90
8527;DHT22;4301;48.362;8.478;2022-07-23T02:24:17;17.70;99.90
8527;DHT22;4301;48.362;8.478;2022-07-23T02:26:44;17.60;99.90
8527;DHT22;4301;48.362;8.478;2022-07-23T02:29:11;17.60;99.90
8527;DHT22;4301;48.362;8.478;2022-07-23T02:31:40;17.50;99.90
8527;DHT22;4301;48.362;8.478;2022-07-23T02:34:07;17.50;99.90
8527;DHT22;4301;48.362;8.478;2022-07-23T02:36:37;17.50;99.90
8527;DHT22;4301;48.362;8.478;2022-07-23T02:39:05;17.50;99.90
8527;DHT22;4301;48.362;8.478;2022-07-23T02:41:32;17.40;99.90
8527;DHT22;4301;48.362;8.478;2022-07-23T02:43:59;17.40;99.90
8527;DHT22;4301;48.362;8.478;2022-07-23T02:46:26;17.30;99.90
8527;DHT22;4301;48.362;8.478;2022-07-23T02:48:54;17.30;99.90
8527;DHT22;4301;48.362;8.478;2022-07-23T02:51:21;17.30;99.90
8527;DHT22;4301;48.362;8.478;2022-07-23T02:53:48;17.40;99.90
8527;DHT22;4301;48.362;8.478;2022-07-23T02:56:15;17.30;99.90
8527;DHT22;4301;48.362;8.478;2022-07-23T02:58:43;17.40;99.90
8527;DHT22;4301;48.362;8.478;2022-07-23T03:01:10;17.30;99.90
8527;DHT22;4301;48.362;8.478;2022-07-23T03:03:37;17.20;99.90
8527;DHT22;4301;48.362;8.478;2022-07-23T03:06:06;17.20;99.90
8527;DHT22;4301;48.362;8.478;2022-07-23T03:08:33;17.20;99.90
8527;DHT22;4301;48.362;8.478;2022-07-23T03:11:00;17.10;99.90
8527;DHT22;4301;48.362;8.478;2022-07-23T03:13:28;17.00;99.90
8527;DHT22;4301;48.362;8.478;2022-07-23T03:15:55;17.00;99.90
8527;DHT22;4301;48.362;8.478;2022-07-23T03:18:22;17.00;99.90
8527;DHT22;4301;48.362;8.478;2022-07-23T03:20:49;16.80;99.90
8527;DHT22;4301;48.362;8.478;2022-07-23T03:23:18;16.80;99.90
8527;DHT22;4301;48.362;8.478;2022-07-23T03:25:45;16.70;99.90
8527;DHT22;4301;48.362;8.478;2022-07-23T03:28:13;16.80;99.90
8527;DHT22;4301;48.362;8.478;2022-07-23T03:30:41;16.80;99.90
8527;DHT22;4301;48.362;8.478;2022-07-23T03:33:08;16.70;99.90
8527;DHT22;4301;48.362;8.478;2022-07-23T03:35:35;16.80;99.90
8527;DHT22;4301;48.362;8.478;2022-07-23T03:38:02;16.70;99.90
8527;DHT22;4301;48.362;8.478;2022-07-23T03:40:31;16.70;99.90
8527;DHT22;4301;48.362;8.478;2022-07-23T03:42:58;16.70;99.90
8527;DHT22;4301;48.362;8.478;2022-07-23T03:45:26;16.70;99.90
8527;DHT22;4301;48.362;8.478;2022-07-23T03:47:53;16.70;99.90
8527;DHT22;4301;48.362;8.478;2022-07-23T03:50:20;16.60;99.90
8527;DHT22;4301;48.362;8.478;2022-07-23T03:52:47;16.60;99.90
8527;DHT22;4301;48.362;8.478;2022-07-23T03:55:15;16.70;99.90
8527;DHT22;4301;48.362;8.478;2022-07-23T03:57:43;16.70;99.90
8527;DHT22;4301;48.362;8.478;2022-07-23T04:00:11;16.70;99.90
8527;DHT22;4301;48.362;8.478;2022-07-23T04:02:40;16.80;99.90
8527;DHT22;4301;48.362;8.478;2022-07-23T04:05:07;16.80;99.90
8527;DHT22;4301;48.362;8.478;2022-07-23T04:07:34;16.80;99.90
8527;DHT22;4301;48.362;8.478;2022-07-23T04:10:02;16.80;99.90
8527;DHT22;4301;48.362;8.478;2022-07-23T04:12:29;16.80;99.90
8527;DHT22;4301;48.362;8.478;2022-07-23T04:14:57;16.90;99.90
8527;DHT22;4301;48.362;8.478;2022-07-23T04:17:24;17.00;99.90
8527;DHT22;4301;48.362;8.478;2022-07-23T04:19:52;17.00;99.90
8527;DHT22;4301;48.362;8.478;2022-07-23T04:22:19;17.00;99.90
8527;DHT22;4301;48.362;8.478;2022-07-23T04:24:46;17.00;99.90
8527;DHT22;4301;48.362;8.478;2022-07-23T04:27:13;17.00;99.90
8527;DHT22;4301;48.362;8.478;2022-07-23T04:29:40;17.10;99.90
8527;DHT22;4301;48.362;8.478;2022-07-23T04:32:09;17.00;99.90
8527;DHT22;4301;48.362;8.478;2022-07-23T04:34:36;16.90;99.90
8527;DHT22;4301;48.362;8.478;2022-07-23T04:37:03;17.00;99.90
8527;DHT22;4301;48.362;8.478;2022-07-23T04:39:30;17.10;99.90
8527;DHT22;4301;48.362;8.478;2022-07-23T04:41:57;17.10;99.90
8527;DHT22;4301;48.362;8.478;2022-07-23T04:44:24;17.10;99.90
8527;DHT22;4301;48.362;8.478;2022-07-23T04:46:51;17.10;99.90
8527;DHT22;4301;48.362;8.478;2022-07-23T04:49:20;17.10;99.90
8527;DHT22;4301;48.362;8.478;2022-07-23T04:51:47;17.10;99.90
8527;DHT22;4301;48.362;8.478;2022-07-23T04:54:14;17.20;99.90
8527;DHT22;4301;48.362;8.478;2022-07-23T04:56:41;17.30;99.90
8527;DHT22;4301;48.362;8.478;2022-07-23T04:59:08;17.20;99.90
8527;DHT22;4301;48.362;8.478;2022-07-23T05:01:35;17.20;99.90
8527;DHT22;4301;48.362;8.478;2022-07-23T05:04:02;17.20;99.90
8527;DHT22;4301;48.362;8.478;2022-07-23T05:06:31;17.20;99.90
8527;DHT22;4301;48.362;8.478;2022-07-23T05:08:58;17.20;99.90
8527;DHT22;4301;48.362;8.478;2022-07-23T05:11:25;17.30;99.90
8527;DHT22;4301;48.362;8.478;2022-07-23T05:13:52;17.40;99.90
8527;DHT22;4301;48.362;8.478;2022-07-23T05:16:19;17.50;99.90
8527;DHT22;4301;48.362;8.478;2022-07-23T05:18:46;17.50;99.90
8527;DHT22;4301;48.362;8.478;2022-07-23T05:21:13;17.60;99.90
8527;DHT22;4301;48.362;8.478;2022-07-23T05:23:42;17.60;99.90
8527;DHT22;4301;48.362;8.478;2022-07-23T05:26:09;17.70;99.90
8527;DHT22;4301;48.362;8.478;2022-07-23T05:28:36;17.70;99.90
8527;DHT22;4301;48.362;8.478;2022-07-23T05:31:03;17.90;99.90
8527;DHT22;4301;48.362;8.478;2022-07-23T05:33:30;17.90;99.90
8527;DHT22;4301;48.362;8.478;2022-07-23T05:36:00;18.00;99.90
8527;DHT22;4301;48.362;8.478;2022-07-23T05:38:28;18.10;99.90
8527;DHT22;4301;48.362;8.478;2022-07-23T05:40:57;18.30;99.90
8527;DHT22;4301;48.362;8.478;2022-07-23T05:43:24;18.40;99.90
8527;DHT22;4301;48.362;8.478;2022-07-23T05:45:51;18.60;99.90
8527;DHT22;4301;48.362;8.478;2022-07-23T05:48:19;18.70;99.90
8527;DHT22;4301;48.362;8.478;2022-07-23T05:50:47;18.90;99.90
8527;DHT22;4301;48.362;8.478;2022-07-23T05:53:14;19.00;99.90
8527;DHT22;4301;48.362;8.478;2022-07-23T05:55:41;19.20;99.90
8527;DHT22;4301;48.362;8.478;2022-07-23T05:58:09;19.30;99.90
8527;DHT22;4301;48.362;8.478;2022-07-23T06:00:36;19.40;99.90
8527;DHT22;4301;48.362;8.478;2022-07-23T06:03:03;19.50;99.90
8527;DHT22;4301;48.362;8.478;2022-07-23T06:05:30;19.60;99.90
8527;DHT22;4301;48.362;8.478;2022-07-23T06:07:57;19.70;99.90
8527;DHT22;4301;48.362;8.478;2022-07-23T06:10:24;19.80;99.90
8527;DHT22;4301;48.362;8.478;2022-07-23T06:12:51;19.90;99.90
8527;DHT22;4301;48.362;8.478;2022-07-23T06:15:20;20.00;99.90
8527;DHT22;4301;48.362;8.478;2022-07-23T06:17:47;20.10;99.90
8527;DHT22;4301;48.362;8.478;2022-07-23T06:20:14;20.20;99.90
8527;DHT22;4301;48.362;8.478;2022-07-23T06:22:41;20.30;99.90
8527;DHT22;4301;48.362;8.478;2022-07-23T06:25:09;20.50;99.90
8527;DHT22;4301;48.362;8.478;2022-07-23T06:27:36;20.70;99.90
8527;DHT22;4301;48.362;8.478;2022-07-23T06:30:04;20.80;99.90
8527;DHT22;4301;48.362;8.478;2022-07-23T06:32:32;20.90;99.90
8527;DHT22;4301;48.362;8.478;2022-07-23T06:34:59;21.00;99.90
8527;DHT22;4301;48.362;8.478;2022-07-23T06:37:26;21.00;99.90
8527;DHT22;4301;48.362;8.478;2022-07-23T06:39:53;21.10;99.90
8527;DHT22;4301;48.362;8.478;2022-07-23T06:42:21;21.20;99.90
8527;DHT22;4301;48.362;8.478;2022-07-23T06:44:48;21.40;99.90
8527;DHT22;4301;48.362;8.478;2022-07-23T06:47:15;21.60;99.90
8527;DHT22;4301;48.362;8.478;2022-07-23T06:49:43;21.70;99.90
8527;DHT22;4301;48.362;8.478;2022-07-23T06:52:11;21.80;99.90
8527;DHT22;4301;48.362;8.478;2022-07-23T06:54:38;22.10;99.90
8527;DHT22;4301;48.362;8.478;2022-07-23T06:57:05;22.10;99.90
8527;DHT22;4301;48.362;8.478;2022-07-23T06:59:32;22.20;99.90
8527;DHT22;4301;48.362;8.478;2022-07-23T07:02:01;22.20;99.90
8527;DHT22;4301;48.362;8.478;2022-07-23T07:04:28;22.30;99.90
8527;DHT22;4301;48.362;8.478;2022-07-23T07:06:57;22.50;99.90
8527;DHT22;4301;48.362;8.478;2022-07-23T07:09:24;22.50;99.90
8527;DHT22;4301;48.362;8.478;2022-07-23T07:11:51;22.70;99.90
8527;DHT22;4301;48.362;8.478;2022-07-23T07:14:18;22.80;99.90
8527;DHT22;4301;48.362;8.478;2022-07-23T07:16:45;22.90;99.90
8527;DHT22;4301;48.362;8.478;2022-07-23T07:19:12;23.00;99.90
8527;DHT22;4301;48.362;8.478;2022-07-23T07:21:40;23.30;99.90
8527;DHT22;4301;48.362;8.478;2022-07-23T07:24:08;23.60;99.90
8527;DHT22;4301;48.362;8.478;2022-07-23T07:26:35;23.60;99.90
8527;DHT22;4301;48.362;8.478;2022-07-23T07:29:04;23.60;99.90
8527;DHT22;4301;48.362;8.478;2022-07-23T07:31:31;23.50;99.90
8527;DHT22;4301;48.362;8.478;2022-07-23T07:33:59;23.50;99.90
8527;DHT22;4301;48.362;8.478;2022-07-23T07:36:26;23.60;99.90
8527;DHT22;4301;48.362;8.478;2022-07-23T07:38:53;23.60;99.90
8527;DHT22;4301;48.362;8.478;2022-07-23T07:41:21;23.80;99.90
8527;DHT22;4301;48.362;8.478;2022-07-23T07:43:50;23.70;99.90
8527;DHT22;4301;48.362;8.478;2022-07-23T07:46:17;23.50;99.90
8527;DHT22;4301;48.362;8.478;2022-07-23T07:48:44;23.30;99.90
8527;DHT22;4301;48.362;8.478;2022-07-23T07:51:11;23.30;99.90
8527;DHT22;4301;48.362;8.478;2022-07-23T07:53:38;23.40;99.90
8527;DHT22;4301;48.362;8.478;2022-07-23T07:56:05;23.80;99.90
8527;DHT22;4301;48.362;8.478;2022-07-23T07:58:34;24.00;99.90
8527;DHT22;4301;48.362;8.478;2022-07-23T08:01:01;24.20;99.90
8527;DHT22;4301;48.362;8.478;2022-07-23T08:03:28;24.50;99.90
8527;DHT22;4301;48.362;8.478;2022-07-23T08:05:55;24.90;99.90
8527;DHT22;4301;48.362;8.478;2022-07-23T08:08:22;24.80;99.90
8527;DHT22;4301;48.362;8.478;2022-07-23T08:10:50;24.80;99.90
8527;DHT22;4301;48.362;8.478;2022-07-23T08:13:17;24.80;99.90
8527;DHT22;4301;48.362;8.478;2022-07-23T08:15:46;24.70;99.90
8527;DHT22;4301;48.362;8.478;2022-07-23T08:18:13;24.50;99.90
8527;DHT22;4301;48.362;8.478;2022-07-23T08:20:40;24.20;99.90
8527;DHT22;4301;48.362;8.478;2022-07-23T08:23:08;24.30;99.90
8527;DHT22;4301;48.362;8.478;2022-07-23T08:25:37;24.50;99.90
8527;DHT22;4301;48.362;8.478;2022-07-23T08:28:06;24.60;99.90
8527;DHT22;4301;48.362;8.478;2022-07-23T08:30:33;24.70;99.90
8527;DHT22;4301;48.362;8.478;2022-07-23T08:33:04;25.00;99.90
8527;DHT22;4301;48.362;8.478;2022-07-23T08:35:34;25.30;99.90
8527;DHT22;4301;48.362;8.478;2022-07-23T08:38:04;25.30;99.90
8527;DHT22;4301;48.362;8.478;2022-07-23T08:40:33;25.60;99.90
8527;DHT22;4301;48.362;8.478;2022-07-23T08:43:03;25.40;99.90
8527;DHT22;4301;48.362;8.478;2022-07-23T08:45:36;25.10;99.90
8527;DHT22;4301;48.362;8.478;2022-07-23T08:48:12;25.10;99.90
8527;DHT22;4301;48.362;8.478;2022-07-23T08:50:42;25.10;99.90
8527;DHT22;4301;48.362;8.478;2022-07-23T08:53:10;25.00;99.90
8527;DHT22;4301;48.362;8.478;2022-07-23T08:55:37;25.70;99.90
8527;DHT22;4301;48.362;8.478;2022-07-23T08:58:05;26.00;99.90
8527;DHT22;4301;48.362;8.478;2022-07-23T09:00:32;26.10;99.90
8527;DHT22;4301;48.362;8.478;2022-07-23T09:03:00;26.20;99.90
8527;DHT22;4301;48.362;8.478;2022-07-23T09:05:28;26.20;99.90
8527;DHT22;4301;48.362;8.478;2022-07-23T09:08:06;26.50;99.90
8527;DHT22;4301;48.362;8.478;2022-07-23T09:10:51;26.90;99.90
8527;DHT22;4301;48.362;8.478;2022-07-23T09:13:28;27.00;99.90
8527;DHT22;4301;48.362;8.478;2022-07-23T09:15:57;27.00;99.90
8527;DHT22;4301;48.362;8.478;2022-07-23T09:18:33;27.40;99.90
8527;DHT22;4301;48.362;8.478;2022-07-23T09:21:23;27.70;99.90
8527;DHT22;4301;48.362;8.478;2022-07-23T09:23:56;27.40;99.90
8527;DHT22;4301;48.362;8.478;2022-07-23T09:26:32;27.60;99.90
8527;DHT22;4301;48.362;8.478;2022-07-23T09:29:05;27.50;99.90
8527;DHT22;4301;48.362;8.478;2022-07-23T09:31:41;27.40;99.90
8527;DHT22;4301;48.362;8.478;2022-07-23T09:34:10;27.30;99.90
8527;DHT22;4301;48.362;8.478;2022-07-23T09:36:40;27.60;99.90
8527;DHT22;4301;48.362;8.478;2022-07-23T09:39:08;27.40;99.90
8527;DHT22;4301;48.362;8.478;2022-07-23T09:41:38;27.20;99.90
8527;DHT22;4301;48.362;8.478;2022-07-23T09:44:09;27.20;99.90
8527;DHT22;4301;48.362;8.478;2022-07-23T09:46:38;27.30;99.90
8527;DHT22;4301;48.362;8.478;2022-07-23T09:49:15;27.60;99.90
8527;DHT22;4301;48.362;8.478;2022-07-23T09:51:50;27.40;99.90
8527;DHT22;4301;48.362;8.478;2022-07-23T09:54:23;27.10;99.90
8527;DHT22;4301;48.362;8.478;2022-07-23T09:56:52;26.90;99.90
8527;DHT22;4301;48.362;8.478;2022-07-23T09:59:24;26.90;99.90
8527;DHT22;4301;48.362;8.478;2022-07-23T10:01:53;26.90;99.90
8527;DHT22;4301;48.362;8.478;2022-07-23T10:04:22;26.80;99.90
8527;DHT22;4301;48.362;8.478;2022-07-23T10:06:52;26.80;99.90
8527;DHT22;4301;48.362;8.478;2022-07-23T10:09:24;26.70;99.90
8527;DHT22;4301;48.362;8.478;2022-07-23T10:11:53;26.50;99.90
8527;DHT22;4301;48.362;8.478;2022-07-23T10:14:21;26.60;99.90
8527;DHT22;4301;48.362;8.478;2022-07-23T10:16:49;26.80;99.90
8527;DHT22;4301;48.362;8.478;2022-07-23T10:19:17;27.00;99.90
8527;DHT22;4301;48.362;8.478;2022-07-23T10:21:47;27.10;99.90
8527;DHT22;4301;48.362;8.478;2022-07-23T10:24:24;27.10;99.90
8527;DHT22;4301;48.362;8.478;2022-07-23T10:27:04;27.20;99.90
8527;DHT22;4301;48.362;8.478;2022-07-23T10:29:45;27.10;99.90
8527;DHT22;4301;48.362;8.478;2022-07-23T10:32:24;27.20;99.90
8527;DHT22;4301;48.362;8.478;2022-07-23T10:35:01;27.30;99.90
8527;DHT22;4301;48.362;8.478;2022-07-23T10:37:34;27.50;99.90
8527;DHT22;4301;48.362;8.478;2022-07-23T10:40:12;27.40;99.90
8527;DHT22;4301;48.362;8.478;2022-07-23T10:42:40;27.30;99.90
8527;DHT22;4301;48.362;8.478;2022-07-23T10:45:31;27.20;99.90
8527;DHT22;4301;48.362;8.478;2022-07-23T10:48:16;27.20;99.90
8527;DHT22;4301;48.362;8.478;2022-07-23T10:50:45;27.30;99.90
8527;DHT22;4301;48.362;8.478;2022-07-23T10:53:53;27.40;99.90
8527;DHT22;4301;48.362;8.478;2022-07-23T10:57:04;27.50;99.90
8527;DHT22;4301;48.362;8.478;2022-07-23T11:00:12;27.70;99.90
8527;DHT22;4301;48.362;8.478;2022-07-23T11:02:41;27.90;99.90
8527;DHT22;4301;48.362;8.478;2022-07-23T11:05:10;27.70;99.90
8527;DHT22;4301;48.362;8.478;2022-07-23T11:08:10;27.80;99.90
8527;DHT22;4301;48.362;8.478;2022-07-23T11:10:41;27.80;99.90
8527;DHT22;4301;48.362;8.478;2022-07-23T11:13:48;27.90;99.90
8527;DHT22;4301;48.362;8.478;2022-07-23T11:19:05;27.60;99.90
8527;DHT22;4301;48.362;8.478;2022-07-23T11:21:46;27.70;99.90
8527;DHT22;4301;48.362;8.478;2022-07-23T11:24:16;27.80;99.90
8527;DHT22;4301;48.362;8.478;2022-07-23T11:26:46;27.80;99.90
8527;DHT22;4301;48.362;8.478;2022-07-23T11:29:47;27.70;99.90
8527;DHT22;4301;48.362;8.478;2022-07-23T11:32:31;27.80;99.90
8527;DHT22;4301;48.362;8.478;2022-07-23T11:34:59;27.80;99.50
8527;DHT22;4301;48.362;8.478;2022-07-23T11:37:30;28.00;99.70
8527;DHT22;4301;48.362;8.478;2022-07-23T11:39:58;27.90;99.90
8527;DHT22;4301;48.362;8.478;2022-07-23T11:42:25;27.90;99.40
8527;DHT22;4301;48.362;8.478;2022-07-23T11:44:54;27.90;99.50
8527;DHT22;4301;48.362;8.478;2022-07-23T11:47:23;27.70;99.90
8527;DHT22;4301;48.362;8.478;2022-07-23T11:49:53;27.50;99.90
8527;DHT22;4301;48.362;8.478;2022-07-23T11:52:21;27.40;99.80
8527;DHT22;4301;48.362;8.478;2022-07-23T11:54:50;27.20;99.90
8527;DHT22;4301;48.362;8.478;2022-07-23T11:57:18;27.30;99.90
8527;DHT22;4301;48.362;8.478;2022-07-23T11:59:47;27.50;99.90
8527;DHT22;4301;48.362;8.478;2022-07-23T12:02:16;27.60;99.90
8527;DHT22;4301;48.362;8.478;2022-07-23T12:04:44;27.80;99.90
8527;DHT22;4301;48.362;8.478;2022-07-23T12:07:31;27.50;99.90
8527;DHT22;4301;48.362;8.478;2022-07-23T12:09:59;27.50;99.90
8527;DHT22;4301;48.362;8.478;2022-07-23T12:12:27;27.40;99.90
8527;DHT22;4301;48.362;8.478;2022-07-23T12:15:01;27.40;99.90
8527;DHT22;4301;48.362;8.478;2022-07-23T12:17:31;27.20;99.90
8527;DHT22;4301;48.362;8.478;2022-07-23T12:19:59;27.10;99.90
8527;DHT22;4301;48.362;8.478;2022-07-23T12:22:35;27.00;99.90
8527;DHT22;4301;48.362;8.478;2022-07-23T12:25:06;27.00;99.90
8527;DHT22;4301;48.362;8.478;2022-07-23T12:27:34;27.10;99.90
8527;DHT22;4301;48.362;8.478;2022-07-23T12:30:19;27.10;99.90
8527;DHT22;4301;48.362;8.478;2022-07-23T12:32:49;27.20;99.90
8527;DHT22;4301;48.362;8.478;2022-07-23T12:35:17;27.20;99.90
8527;DHT22;4301;48.362;8.478;2022-07-23T12:37:46;27.10;99.80
8527;DHT22;4301;48.362;8.478;2022-07-23T12:40:25;27.00;99.90
8527;DHT22;4301;48.362;8.478;2022-07-23T12:42:53;27.00;99.90
8527;DHT22;4301;48.362;8.478;2022-07-23T12:45:21;27.10;99.90
8527;DHT22;4301;48.362;8.478;2022-07-23T12:48:01;27.00;99.30
8527;DHT22;4301;48.362;8.478;2022-07-23T12:50:36;27.10;99.90
8527;DHT22;4301;48.362;8.478;2022-07-23T12:53:05;27.00;99.90
8527;DHT22;4301;48.362;8.478;2022-07-23T12:55:33;27.00;99.90
8527;DHT22;4301;48.362;8.478;2022-07-23T12:58:08;27.20;99.90
8527;DHT22;4301;48.362;8.478;2022-07-23T13:00:53;27.40;99.80
8527;DHT22;4301;48.362;8.478;2022-07-23T13:03:24;27.60;99.60
8527;DHT22;4301;48.362;8.478;2022-07-23T13:05:51;27.90;99.50
8527;DHT22;4301;48.362;8.478;2022-07-23T13:08:19;28.00;99.00
8527;DHT22;4301;48.362;8.478;2022-07-23T13:10:46;28.00;98.00
8527;DHT22;4301;48.362;8.478;2022-07-23T13:13:14;28.00;98.30
8527;DHT22;4301;48.362;8.478;2022-07-23T13:15:42;28.10;97.50
8527;DHT22;4301;48.362;8.478;2022-07-23T13:18:09;28.10;96.90
8527;DHT22;4301;48.362;8.478;2022-07-23T13:20:38;27.90;97.20
8527;DHT22;4301;48.362;8.478;2022-07-23T13:23:06;28.20;96.70
8527;DHT22;4301;48.362;8.478;2022-07-23T13:25:33;28.30;96.80
8527;DHT22;4301;48.362;8.478;2022-07-23T13:28:01;28.40;96.10
8527;DHT22;4301;48.362;8.478;2022-07-23T13:30:28;28.40;95.40
8527;DHT22;4301;48.362;8.478;2022-07-23T13:32:56;28.20;95.40
8527;DHT22;4301;48.362;8.478;2022-07-23T13:35:24;28.40;95.60
8527;DHT22;4301;48.362;8.478;2022-07-23T13:37:52;28.30;95.70
8527;DHT22;4301;48.362;8.478;2022-07-23T13:40:22;28.30;95.20
8527;DHT22;4301;48.362;8.478;2022-07-23T13:42:49;28.20;94.80
8527;DHT22;4301;48.362;8.478;2022-07-23T13:45:16;28.30;94.80
8527;DHT22;4301;48.362;8.478;2022-07-23T13:47:43;28.50;93.80
8527;DHT22;4301;48.362;8.478;2022-07-23T13:50:10;28.40;93.50
8527;DHT22;4301;48.362;8.478;2022-07-23T13:52:38;28.50;93.60
8527;DHT22;4301;48.362;8.478;2022-07-23T13:55:07;28.60;93.40
8527;DHT22;4301;48.362;8.478;2022-07-23T13:57:34;28.70;93.10
8527;DHT22;4301;48.362;8.478;2022-07-23T14:00:03;28.20;93.80
8527;DHT22;4301;48.362;8.478;2022-07-23T14:02:31;28.40;93.90
8527;DHT22;4301;48.362;8.478;2022-07-23T14:04:58;28.50;93.40
8527;DHT22;4301;48.362;8.478;2022-07-23T14:07:25;28.50;92.50
8527;DHT22;4301;48.362;8.478;2022-07-23T14:09:52;28.40;93.20
8527;DHT22;4301;48.362;8.478;2022-07-23T14:12:21;28.60;93.40
8527;DHT22;4301;48.362;8.478;2022-07-23T14:14:48;28.80;93.10
8527;DHT22;4301;48.362;8.478;2022-07-23T14:17:15;28.80;91.90
8527;DHT22;4301;48.362;8.478;2022-07-23T14:19:45;28.80;91.90
8527;DHT22;4301;48.362;8.478;2022-07-23T14:22:12;28.90;91.90
8527;DHT22;4301;48.362;8.478;2022-07-23T14:24:39;28.90;91.60
8527;DHT22;4301;48.362;8.478;2022-07-23T14:27:06;29.00;90.30
8527;DHT22;4301;48.362;8.478;2022-07-23T14:29:35;29.20;89.00
8527;DHT22;4301;48.362;8.478;2022-07-23T14:32:03;29.00;89.40
8527;DHT22;4301;48.362;8.478;2022-07-23T14:34:30;28.70;90.00
8527;DHT22;4301;48.362;8.478;2022-07-23T14:36:58;28.60;89.60
8527;DHT22;4301;48.362;8.478;2022-07-23T14:39:26;28.50;90.40
8527;DHT22;4301;48.362;8.478;2022-07-23T14:41:53;28.20;90.90
8527;DHT22;4301;48.362;8.478;2022-07-23T14:44:20;28.20;90.50
8527;DHT22;4301;48.362;8.478;2022-07-23T14:46:48;28.10;90.00
8527;DHT22;4301;48.362;8.478;2022-07-23T14:49:15;28.30;90.10
8527;DHT22;4301;48.362;8.478;2022-07-23T14:51:43;28.50;90.20
8527;DHT22;4301;48.362;8.478;2022-07-23T14:54:11;28.70;89.80
8527;DHT22;4301;48.362;8.478;2022-07-23T14:56:40;28.80;90.60
8527;DHT22;4301;48.362;8.478;2022-07-23T14:59:07;28.80;90.40
8527;DHT22;4301;48.362;8.478;2022-07-23T15:01:35;28.80;90.10
8527;DHT22;4301;48.362;8.478;2022-07-23T15:04:04;28.90;89.00
8527;DHT22;4301;48.362;8.478;2022-07-23T15:06:32;28.90;89.30
8527;DHT22;4301;48.362;8.478;2022-07-23T15:08:59;28.70;88.70
8527;DHT22;4301;48.362;8.478;2022-07-23T15:11:26;28.30;89.50
8527;DHT22;4301;48.362;8.478;2022-07-23T15:13:56;28.20;88.80
8527;DHT22;4301;48.362;8.478;2022-07-23T15:16:23;28.10;89.60
8527;DHT22;4301;48.362;8.478;2022-07-23T15:18:51;28.20;89.30
8527;DHT22;4301;48.362;8.478;2022-07-23T15:21:19;28.50;88.90
8527;DHT22;4301;48.362;8.478;2022-07-23T15:23:46;28.60;89.30
8527;DHT22;4301;48.362;8.478;2022-07-23T15:26:13;28.70;88.80
8527;DHT22;4301;48.362;8.478;2022-07-23T15:28:41;28.90;90.50
8527;DHT22;4301;48.362;8.478;2022-07-23T15:31:08;29.00;89.10
8527;DHT22;4301;48.362;8.478;2022-07-23T15:33:35;29.20;88.60
8527;DHT22;4301;48.362;8.478;2022-07-23T15:36:04;29.30;87.30
8527;DHT22;4301;48.362;8.478;2022-07-23T15:38:33;28.90;88.10
8527;DHT22;4301;48.362;8.478;2022-07-23T15:41:01;28.70;89.40
8527;DHT22;4301;48.362;8.478;2022-07-23T15:43:28;28.30;88.70
8527;DHT22;4301;48.362;8.478;2022-07-23T15:45:55;28.30;89.30
8527;DHT22;4301;48.362;8.478;2022-07-23T15:48:22;28.60;89.00
8527;DHT22;4301;48.362;8.478;2022-07-23T15:50:50;28.90;88.80
8527;DHT22;4301;48.362;8.478;2022-07-23T15:53:17;28.90;86.20
8527;DHT22;4301;48.362;8.478;2022-07-23T15:55:46;28.60;86.80
8527;DHT22;4301;48.362;8.478;2022-07-23T15:58:13;28.60;86.80
8527;DHT22;4301;48.362;8.478;2022-07-23T16:00:41;28.70;87.20
8527;DHT22;4301;48.362;8.478;2022-07-23T16:03:08;28.80;87.00
8527;DHT22;4301;48.362;8.478;2022-07-23T16:05:35;28.60;87.00
8527;DHT22;4301;48.362;8.478;2022-07-23T16:08:03;28.40;89.70
8527;DHT22;4301;48.362;8.478;2022-07-23T16:10:31;28.30;88.40
8527;DHT22;4301;48.362;8.478;2022-07-23T16:13:00;28.20;89.60
8527;DHT22;4301;48.362;8.478;2022-07-23T16:15:27;28.00;90.10
8527;DHT22;4301;48.362;8.478;2022-07-23T16:17:55;27.90;90.70